πŸ“Š DonnΓ©es MΓ©tΓ©o - Bordeaux

Total mesures

14,501

TempΓ©rature moyenne

18.9Β°C

Temp. Min/Max

2.9Β° / 42.4Β°

HumiditΓ© moyenne

64.8%

Pression moyenne

1014.7 hPa
enregistrements
ID Date/Heure Temp (Β°C) HumiditΓ© (%) Pression (hPa) Tendance LuminositΓ© (lux) Situation
6301 19/04/2026 03:45 13.5 78.0 1,018.4 β†’ Stable 0 pluvieux-gris
6300 19/04/2026 03:30 13.6 79.0 1,018.4 β†’ Stable 0 pluvieux-gris
6299 19/04/2026 03:15 13.8 79.0 1,018.4 β†’ Stable 0 pluvieux-gris
6298 19/04/2026 02:45 14.1 77.0 1,018.4 β†’ Stable 0 pluvieux-gris
6297 19/04/2026 02:30 14.0 79.0 1,018.4 β†’ Stable 0 pluvieux-gris
6296 19/04/2026 02:15 14.1 79.0 1,018.4 β†’ Stable 0 pluvieux-gris
6295 19/04/2026 01:45 14.6 80.0 1,018.4 β†’ Stable 0 pluvieux-gris
6294 19/04/2026 01:30 14.1 84.0 1,018.4 β†’ Stable 0 pluvieux-gris
6293 19/04/2026 01:15 14.1 84.0 1,018.5 β†’ Stable 0 pluvieux-gris
6292 19/04/2026 00:45 14.5 81.0 1,018.8 β†’ Stable 0 pluvieux-gris
6291 19/04/2026 00:15 14.4 82.0 1,018.8 β†’ Stable 0 pluvieux-gris
6290 18/04/2026 23:45 14.7 80.0 1,018.9 β†’ Stable 0 pluvieux-gris
6289 18/04/2026 23:15 14.6 82.0 1,018.9 β†’ Stable 0 pluvieux-gris
6288 18/04/2026 22:45 14.8 81.0 1,018.7 β†’ Stable 0 pluvieux-gris
6287 18/04/2026 22:30 14.8 82.0 1,018.7 β†’ Stable 0 pluvieux-gris
6286 18/04/2026 22:15 15.0 82.0 1,018.7 β†’ Stable 0 pluvieux-gris
6285 18/04/2026 21:45 15.3 80.0 1,018.9 β†’ Stable 0 pluvieux-gris
6284 18/04/2026 21:30 15.6 78.0 1,018.9 β†’ Stable 0 pluvieux-gris
6283 18/04/2026 21:15 15.8 77.0 1,018.9 β†’ Stable 0 pluvieux-gris
6282 18/04/2026 20:45 16.5 71.0 1,018.7 β†’ Stable 0 pluvieux-gris (approx.)
6281 18/04/2026 20:30 16.7 68.0 1,018.7 β†’ Stable 0 frais-stable
6280 18/04/2026 20:15 17.0 67.0 1,018.7 β†’ Stable 0 frais-stable
6279 18/04/2026 19:45 17.4 64.0 1,018.2 β†’ Stable 0 frais-stable
6278 18/04/2026 19:30 17.8 61.0 1,018.2 β†’ Stable 0 frais-stable
6277 18/04/2026 19:15 18.1 58.0 1,018.2 β†’ Stable 0 frais-stable
6276 18/04/2026 18:45 18.7 55.0 1,017.7 β†’ Stable 1,764 frais-stable
6275 18/04/2026 18:30 19.3 55.0 1,017.7 β†’ Stable 5,280 frais-stable
6274 18/04/2026 18:15 19.5 56.0 1,017.7 β†’ Stable 9,720 frais-stable
6273 18/04/2026 17:45 20.1 56.0 1,017.9 β†’ Stable 18,708 frais-stable
6272 18/04/2026 17:30 20.6 51.0 1,017.9 β†’ Stable 21,852 frais-stable
6271 18/04/2026 17:15 21.0 50.0 1,017.9 β†’ Stable 25,836 frais-stable
6270 18/04/2026 16:45 21.6 45.0 1,018.0 β†’ Stable 33,516 frais-stable
6269 18/04/2026 16:15 22.0 47.0 1,018.0 β†’ Stable 36,204 frais-stable
6268 18/04/2026 15:45 22.3 46.0 1,017.4 β†’ Stable 43,236 frais-stable
6267 18/04/2026 15:15 22.8 45.0 1,017.4 β†’ Stable 50,280 frais-stable
6266 18/04/2026 14:45 23.3 46.0 1,017.6 β†’ Stable 56,664 conditions-neutrales-ou-non-definies
6265 18/04/2026 14:15 24.2 46.0 1,017.6 β†’ Stable 69,816 confortablement-chaud (approx.)
6264 18/04/2026 13:45 24.4 45.0 1,018.1 β†’ Stable 79,632 confortablement-chaud
6263 18/04/2026 13:15 24.0 43.0 1,018.1 β†’ Stable 83,976 confortablement-chaud
6262 18/04/2026 12:45 23.5 44.0 1,018.5 β†’ Stable 86,760 confortablement-chaud (approx.)
6261 18/04/2026 12:15 23.5 45.0 1,018.5 β†’ Stable 95,928 confortablement-chaud (approx.)
6260 18/04/2026 11:45 22.9 47.0 1,019.0 β†’ Stable 97,128 frais-stable
6259 18/04/2026 11:15 22.1 50.0 1,019.0 β†’ Stable 96,384 frais-stable
6258 18/04/2026 10:45 21.2 54.0 1,019.6 β†’ Stable 93,060 frais-stable
6257 18/04/2026 10:15 20.4 59.0 1,019.6 β†’ Stable 84,624 frais-stable
6256 18/04/2026 09:45 19.3 64.0 1,019.8 β†’ Stable 78,336 frais-stable
6255 18/04/2026 09:15 17.8 71.0 1,019.8 β†’ Stable 62,964 pluvieux-gris (approx.)
6254 18/04/2026 08:45 16.7 74.0 1,019.9 β†’ Stable 54,444 pluvieux-gris (approx.)
6253 18/04/2026 08:15 15.8 76.0 1,019.9 β†’ Stable 44,724 pluvieux-gris
6252 18/04/2026 07:45 14.7 81.0 1,019.9 β†’ Stable 35,652 pluvieux-gris
6251 18/04/2026 07:15 13.7 82.0 1,019.9 β†’ Stable 24,720 pluvieux-gris
6250 18/04/2026 06:45 13.0 85.0 1,019.5 β†’ Stable 17,124 pluvieux-gris
6249 18/04/2026 06:15 12.6 86.0 1,019.5 β†’ Stable 7,872 pluvieux-gris
6248 18/04/2026 05:45 12.2 88.0 1,018.9 β†’ Stable 2,772 pluvieux-gris
6247 18/04/2026 05:15 12.2 89.0 1,019.1 β†’ Stable 0 pluvieux-gris
6246 18/04/2026 04:45 12.3 88.0 1,018.5 β†’ Stable 0 pluvieux-gris
6245 18/04/2026 04:15 12.3 89.0 1,018.5 β†’ Stable 0 pluvieux-gris
6244 18/04/2026 03:45 12.5 87.0 1,018.7 β†’ Stable 0 pluvieux-gris
6243 18/04/2026 03:15 12.4 85.0 1,018.7 β†’ Stable 0 pluvieux-gris
6242 18/04/2026 02:45 12.5 85.0 1,018.7 β†’ Stable 0 pluvieux-gris
6241 18/04/2026 02:30 12.7 84.0 1,018.7 β†’ Stable 0 pluvieux-gris
6240 18/04/2026 01:45 12.9 83.0 1,018.8 β†’ Stable 0 pluvieux-gris
6239 18/04/2026 01:30 13.0 85.0 1,018.8 β†’ Stable 0 pluvieux-gris
6238 18/04/2026 01:15 13.1 85.0 1,018.8 β†’ Stable 0 pluvieux-gris
6237 18/04/2026 00:45 13.3 84.0 1,018.9 β†’ Stable 0 pluvieux-gris
6236 18/04/2026 00:15 13.8 82.0 1,018.9 β†’ Stable 0 pluvieux-gris
6235 17/04/2026 23:45 14.0 80.0 1,018.9 β†’ Stable 0 pluvieux-gris
6234 17/04/2026 23:30 14.1 80.0 1,018.9 β†’ Stable 0 pluvieux-gris
6233 17/04/2026 23:15 14.3 79.0 1,018.9 β†’ Stable 0 pluvieux-gris
6232 17/04/2026 22:45 14.7 76.0 1,018.8 β†’ Stable 0 pluvieux-gris
6231 17/04/2026 22:15 15.3 73.0 1,018.8 β†’ Stable 0 pluvieux-gris
6230 17/04/2026 21:45 15.9 69.0 1,018.7 β†’ Stable 0 frais-stable
6229 17/04/2026 21:30 16.5 66.0 1,018.7 β†’ Stable 0 frais-stable
6228 17/04/2026 21:15 16.7 66.0 1,018.7 β†’ Stable 0 frais-stable
6227 17/04/2026 20:45 17.1 66.0 1,018.4 β†’ Stable 0 frais-stable
6226 17/04/2026 20:30 17.5 64.0 1,018.4 β†’ Stable 0 frais-stable
6225 17/04/2026 20:15 17.8 63.0 1,018.4 β†’ Stable 0 frais-stable
6224 17/04/2026 19:45 18.6 60.0 1,017.5 β†’ Stable 0 frais-stable
6223 17/04/2026 19:30 19.5 56.0 1,017.5 β†’ Stable 0 frais-stable
6222 17/04/2026 19:15 20.0 54.0 1,017.5 β†’ Stable 0 frais-stable
6221 17/04/2026 18:45 20.9 52.0 1,017.1 β†’ Stable 1,296 frais-stable
6220 17/04/2026 18:30 21.4 50.0 1,017.1 β†’ Stable 4,536 frais-stable
6219 17/04/2026 18:15 22.0 49.0 1,017.1 β†’ Stable 8,328 frais-stable
6218 17/04/2026 17:45 23.3 50.0 1,016.5 β†’ Stable 15,924 conditions-neutrales-ou-non-definies
6217 17/04/2026 17:30 23.5 49.0 1,016.5 β†’ Stable 20,460 conditions-neutrales-ou-non-definies
6216 17/04/2026 17:15 24.0 48.0 1,016.5 β†’ Stable 24,540 confortablement-chaud (approx.)
6215 17/04/2026 16:45 25.0 46.0 1,016.0 β†’ Stable 32,220 confortablement-chaud (approx.)
6214 17/04/2026 16:15 26.4 35.0 1,016.0 β†’ Stable 44,352 conditions-neutrales-ou-non-definies
6213 17/04/2026 15:45 26.1 35.0 1,015.9 β†’ Stable 52,500 conditions-neutrales-ou-non-definies
6212 17/04/2026 15:15 26.1 36.0 1,015.9 β†’ Stable 61,764 conditions-neutrales-ou-non-definies
6211 17/04/2026 14:45 26.0 36.0 1,016.3 β†’ Stable 68,892 conditions-neutrales-ou-non-definies
6210 17/04/2026 14:15 25.8 37.0 1,016.3 β†’ Stable 82,776 confortablement-chaud (approx.)
6209 17/04/2026 13:45 25.6 37.0 1,016.8 β†’ Stable 89,172 confortablement-chaud (approx.)
6208 17/04/2026 13:15 25.1 39.0 1,016.9 β†’ Stable 94,632 confortablement-chaud (approx.)
6207 17/04/2026 12:45 24.8 39.0 1,017.4 β†’ Stable 97,680 confortablement-chaud (approx.)
6206 17/04/2026 12:15 24.5 40.0 1,017.4 β†’ Stable 98,700 confortablement-chaud
6205 17/04/2026 11:45 24.0 42.0 1,017.9 β†’ Stable 98,244 confortablement-chaud
6204 17/04/2026 11:15 23.4 44.0 1,017.9 β†’ Stable 96,384 confortablement-chaud (approx.)
6203 17/04/2026 10:45 22.6 47.0 1,018.5 β†’ Stable 93,144 frais-stable
6202 17/04/2026 10:15 21.7 52.0 1,018.5 β†’ Stable 88,152 frais-stable